Time;durP1;ratioP1;P1;durP2;ratioP2;P2;SDS_P1;SDS_P2;PMS_P1;PMS_P2;Temp;Humidity;BMP_temperature;BMP_pressure;BME280_temperature;BME280_humidity;BME280_pressure;Samples;Min_cycle;Max_cycle;Signal;HPM_P1;HPM_P2
2023/09/30 00:01:43;;;;;;;11.43;3.75;;;;;;;;;;4959204;28;20038;-79
2023/09/30 00:04:09;;;;;;;10.52;3.65;;;;;;;;;;4959345;28;20505;-80
2023/09/30 00:06:34;;;;;;;9.75;3.30;;;;;;;;;;4954923;28;20031;-79
2023/09/30 00:08:59;;;;;;;11.60;3.35;;;;;;;;;;4944581;28;20506;-76
2023/09/30 00:11:25;;;;;;;15.10;4.10;;;;;;;;;;4955306;28;20223;-78
2023/09/30 00:13:50;;;;;;;9.18;3.40;;;;;;;;;;4954364;28;20027;-78
2023/09/30 00:16:17;;;;;;;14.57;3.15;;;;;;;;;;4955081;28;20031;-79
2023/09/30 00:18:43;;;;;;;11.65;3.67;;;;;;;;;;4960032;28;20034;-79
2023/09/30 00:21:08;;;;;;;11.27;2.90;;;;;;;;;;4940056;28;20054;-79
2023/09/30 00:23:34;;;;;;;8.38;3.20;;;;;;;;;;4950823;28;20038;-79
2023/09/30 00:26:00;;;;;;;10.80;3.30;;;;;;;;;;4953141;28;20508;-79
2023/09/30 00:28:26;;;;;;;9.38;2.90;;;;;;;;;;4954026;28;20023;-79
2023/09/30 00:30:51;;;;;;;12.25;3.13;;;;;;;;;;4954658;28;20050;-79
2023/09/30 00:33:17;;;;;;;10.80;3.05;;;;;;;;;;4954002;28;20089;-79
2023/09/30 00:35:42;;;;;;;8.25;2.85;;;;;;;;;;4953728;28;20023;-79
2023/09/30 00:38:09;;;;;;;10.65;3.17;;;;;;;;;;4952247;28;20275;-80
2023/09/30 00:40:35;;;;;;;10.23;3.50;;;;;;;;;;4954317;28;20035;-79
2023/09/30 00:43:01;;;;;;;10.85;3.30;;;;;;;;;;4958244;28;20310;-79
2023/09/30 00:45:27;;;;;;;8.40;2.88;;;;;;;;;;4957090;28;20055;-79
2023/09/30 00:47:53;;;;;;;9.98;3.13;;;;;;;;;;4956313;28;20033;-79
2023/09/30 00:50:20;;;;;;;8.73;2.95;;;;;;;;;;4960154;28;20102;-79
2023/09/30 00:52:48;;;;;;;9.48;3.10;;;;;;;;;;4962536;28;20055;-86
2023/09/30 00:55:15;;;;;;;8.43;3.13;;;;;;;;;;4961029;28;20069;-79
2023/09/30 00:57:41;;;;;;;9.90;3.45;;;;;;;;;;4963783;28;20027;-81
2023/09/30 01:00:11;;;;;;;12.55;3.58;;;;;;;;;;4949148;28;20062;-85
2023/09/30 01:02:44;;;;;;;9.32;3.20;;;;;;;;;;4954860;28;20434;-85
2023/09/30 01:05:09;;;;;;;8.10;3.15;;;;;;;;;;4958219;28;20069;-85
2023/09/30 01:07:35;;;;;;;7.70;3.00;;;;;;;;;;4963204;28;20196;-86
2023/09/30 01:10:01;;;;;;;12.40;3.60;;;;;;;;;;4964038;28;20038;-79
2023/09/30 01:12:27;;;;;;;11.80;3.10;;;;;;;;;;4968209;28;20346;-84
2023/09/30 01:14:58;;;;;;;9.27;2.72;;;;;;;;;;4962330;28;20098;-78
2023/09/30 01:17:23;;;;;;;10.82;3.00;;;;;;;;;;4964426;28;20026;-84
2023/09/30 01:19:49;;;;;;;11.90;2.97;;;;;;;;;;4964203;28;20041;-79
2023/09/30 01:22:16;;;;;;;12.57;2.92;;;;;;;;;;4952952;28;20046;-79
2023/09/30 01:24:42;;;;;;;10.45;3.10;;;;;;;;;;4963919;28;20030;-87
2023/09/30 01:27:08;;;;;;;9.20;2.97;;;;;;;;;;4962448;28;20041;-84
2023/09/30 01:29:34;;;;;;;10.43;3.10;;;;;;;;;;4964679;28;20026;-85
2023/09/30 01:32:01;;;;;;;10.10;3.70;;;;;;;;;;4959299;28;20308;-79
2023/09/30 01:34:27;;;;;;;7.72;2.80;;;;;;;;;;4980356;28;20038;-83
2023/09/30 01:36:53;;;;;;;9.85;3.28;;;;;;;;;;4973092;28;20042;-78
2023/09/30 01:39:18;;;;;;;7.90;2.90;;;;;;;;;;4967961;28;20038;-79
2023/09/30 01:41:44;;;;;;;8.93;2.78;;;;;;;;;;4966202;28;20584;-86
2023/09/30 01:44:09;;;;;;;10.40;2.88;;;;;;;;;;4958297;28;20280;-83
2023/09/30 01:46:36;;;;;;;12.73;3.25;;;;;;;;;;4966866;28;20046;-85
2023/09/30 01:49:01;;;;;;;10.02;3.15;;;;;;;;;;4967682;28;20045;-81
2023/09/30 01:51:27;;;;;;;8.82;3.08;;;;;;;;;;4957328;28;20038;-87
2023/09/30 01:53:53;;;;;;;11.10;3.20;;;;;;;;;;4952649;28;20038;-78
2023/09/30 01:56:18;;;;;;;8.73;3.03;;;;;;;;;;4964923;28;20035;-83
2023/09/30 01:58:44;;;;;;;10.68;3.03;;;;;;;;;;4968845;28;20046;-84
2023/09/30 02:01:09;;;;;;;12.10;3.20;;;;;;;;;;4955024;28;20065;-85
2023/09/30 02:03:34;;;;;;;12.52;3.78;;;;;;;;;;4964656;28;20026;-86
2023/09/30 02:06:00;;;;;;;7.10;2.90;;;;;;;;;;4960157;28;20030;-78
2023/09/30 02:08:25;;;;;;;10.00;3.10;;;;;;;;;;4965245;28;20066;-81
2023/09/30 02:10:51;;;;;;;10.15;2.95;;;;;;;;;;4965237;28;20027;-78
2023/09/30 02:13:17;;;;;;;10.45;3.15;;;;;;;;;;4963247;28;20035;-87
2023/09/30 02:15:43;;;;;;;10.13;3.20;;;;;;;;;;4961363;28;20102;-88
2023/09/30 02:18:09;;;;;;;7.72;2.97;;;;;;;;;;4960694;28;20089;-87
2023/09/30 02:20:35;;;;;;;7.85;3.30;;;;;;;;;;4965033;28;20050;-86
2023/09/30 02:23:02;;;;;;;10.98;3.30;;;;;;;;;;4960509;28;20435;-78
2023/09/30 02:25:27;;;;;;;7.60;2.80;;;;;;;;;;4963018;28;20438;-86
2023/09/30 02:27:54;;;;;;;9.05;3.25;;;;;;;;;;4964823;28;20042;-78
2023/09/30 02:30:20;;;;;;;13.50;3.55;;;;;;;;;;4961011;28;20023;-86
2023/09/30 02:32:46;;;;;;;11.73;3.50;;;;;;;;;;4962672;28;20035;-87
2023/09/30 02:35:12;;;;;;;10.18;3.42;;;;;;;;;;4959529;28;20027;-79
2023/09/30 02:37:38;;;;;;;8.25;3.13;;;;;;;;;;4966716;28;20095;-79
2023/09/30 02:40:08;;;;;;;14.55;3.40;;;;;;;;;;4955970;28;20035;-79
2023/09/30 02:42:34;;;;;;;9.60;3.50;;;;;;;;;;4966640;28;20045;-86
2023/09/30 02:45:01;;;;;;;11.82;3.55;;;;;;;;;;4958515;28;20046;-78
2023/09/30 02:47:26;;;;;;;10.82;3.50;;;;;;;;;;4960701;28;20031;-79
2023/09/30 02:49:51;;;;;;;9.90;3.30;;;;;;;;;;4952749;28;20019;-79
2023/09/30 02:52:17;;;;;;;11.40;3.10;;;;;;;;;;4955274;28;20161;-84
2023/09/30 02:54:42;;;;;;;9.88;3.45;;;;;;;;;;4959418;28;20042;-88
2023/09/30 02:57:09;;;;;;;10.68;3.28;;;;;;;;;;4938618;28;20037;-85
2023/09/30 02:59:36;;;;;;;9.57;3.50;;;;;;;;;;4942889;28;20066;-80
2023/09/30 03:02:01;;;;;;;14.57;3.30;;;;;;;;;;4949226;28;20474;-79
2023/09/30 03:04:28;;;;;;;8.35;3.08;;;;;;;;;;4950751;28;20042;-82
2023/09/30 03:06:56;;;;;;;8.27;3.03;;;;;;;;;;4943665;28;20082;-79
2023/09/30 03:09:22;;;;;;;14.77;3.50;;;;;;;;;;4957054;28;20105;-85
2023/09/30 03:11:47;;;;;;;11.65;3.50;;;;;;;;;;4961796;28;20038;-79
2023/09/30 03:14:13;;;;;;;11.55;3.45;;;;;;;;;;4952856;28;20035;-79
2023/09/30 03:16:40;;;;;;;13.02;3.13;;;;;;;;;;4948041;28;20019;-87
2023/09/30 03:19:08;;;;;;;6.95;3.20;;;;;;;;;;4952391;28;20469;-85
2023/09/30 03:21:35;;;;;;;11.52;3.35;;;;;;;;;;4954252;28;20323;-84
2023/09/30 03:24:02;;;;;;;10.15;3.55;;;;;;;;;;4960675;28;20047;-79
2023/09/30 03:26:29;;;;;;;10.93;3.15;;;;;;;;;;4959927;28;20030;-79
2023/09/30 03:28:55;;;;;;;9.48;3.22;;;;;;;;;;4960842;28;20027;-79
2023/09/30 03:31:20;;;;;;;10.25;3.40;;;;;;;;;;4953678;28;20105;-86
2023/09/30 03:33:46;;;;;;;11.27;3.55;;;;;;;;;;4943566;28;20050;-86
2023/09/30 03:36:12;;;;;;;10.45;3.63;;;;;;;;;;4946585;28;20508;-86
2023/09/30 03:38:37;;;;;;;9.73;3.90;;;;;;;;;;4957007;28;20026;-86
2023/09/30 03:41:02;;;;;;;12.23;3.67;;;;;;;;;;4948869;28;20113;-86
2023/09/30 03:43:28;;;;;;;12.88;4.05;;;;;;;;;;4955200;28;20131;-79
2023/09/30 03:45:53;;;;;;;8.20;3.53;;;;;;;;;;4949688;28;20552;-79
2023/09/30 03:48:19;;;;;;;9.65;3.42;;;;;;;;;;4964691;28;20029;-79
2023/09/30 03:50:45;;;;;;;12.45;3.47;;;;;;;;;;4952202;28;20579;-80
2023/09/30 03:53:11;;;;;;;9.75;3.40;;;;;;;;;;4955050;28;20026;-80
2023/09/30 03:55:37;;;;;;;8.77;3.58;;;;;;;;;;4960452;28;20037;-79
2023/09/30 03:58:03;;;;;;;10.40;3.40;;;;;;;;;;4961994;28;20074;-79
2023/09/30 04:00:29;;;;;;;13.15;3.55;;;;;;;;;;4963316;28;20035;-79
2023/09/30 04:02:58;;;;;;;9.10;3.80;;;;;;;;;;4952395;28;20441;-80
2023/09/30 04:05:29;;;;;;;9.55;3.45;;;;;;;;;;4960824;28;20038;-79
2023/09/30 04:07:55;;;;;;;12.55;3.60;;;;;;;;;;4960425;28;20027;-81
2023/09/30 04:10:22;;;;;;;10.73;3.60;;;;;;;;;;4959003;28;20538;-80
2023/09/30 04:12:48;;;;;;;13.93;4.35;;;;;;;;;;4960435;28;20042;-80
2023/09/30 04:15:13;;;;;;;13.98;4.03;;;;;;;;;;4957651;28;20249;-79
2023/09/30 04:17:39;;;;;;;13.38;4.05;;;;;;;;;;4962301;28;20031;-80
2023/09/30 04:20:10;;;;;;;10.55;4.25;;;;;;;;;;4951460;28;20035;-80
2023/09/30 04:22:36;;;;;;;8.65;3.95;;;;;;;;;;4946724;28;20066;-80
2023/09/30 04:25:08;;;;;;;12.75;4.40;;;;;;;;;;4943466;28;20122;-78
2023/09/30 04:27:33;;;;;;;8.57;3.65;;;;;;;;;;4952936;28;20042;-79
2023/09/30 04:29:59;;;;;;;12.07;3.92;;;;;;;;;;4953464;28;20042;-78
2023/09/30 04:32:27;;;;;;;9.77;4.13;;;;;;;;;;4963062;28;20026;-79
2023/09/30 04:34:53;;;;;;;11.55;4.03;;;;;;;;;;4961860;28;20050;-80
2023/09/30 04:37:18;;;;;;;10.70;3.67;;;;;;;;;;4964705;28;20161;-81
2023/09/30 04:39:44;;;;;;;12.93;4.22;;;;;;;;;;4963818;28;20042;-78
2023/09/30 04:42:11;;;;;;;8.35;3.42;;;;;;;;;;4955569;28;20019;-86
2023/09/30 04:44:38;;;;;;;10.63;3.42;;;;;;;;;;4963823;28;20529;-86
2023/09/30 04:47:04;;;;;;;9.77;3.50;;;;;;;;;;4960449;28;20027;-79
2023/09/30 04:49:30;;;;;;;11.70;4.15;;;;;;;;;;4960070;28;20094;-78
2023/09/30 04:51:56;;;;;;;9.00;3.50;;;;;;;;;;4948643;28;20037;-79
2023/09/30 04:54:21;;;;;;;12.38;3.90;;;;;;;;;;4964666;28;20035;-84
2023/09/30 04:56:47;;;;;;;10.60;3.60;;;;;;;;;;4965418;28;20035;-78
2023/09/30 04:59:12;;;;;;;13.35;3.85;;;;;;;;;;4959944;28;20034;-78
2023/09/30 05:01:38;;;;;;;11.75;4.13;;;;;;;;;;4961979;28;20026;-78
2023/09/30 05:04:03;;;;;;;9.23;3.60;;;;;;;;;;4961979;28;20049;-78
2023/09/30 05:06:32;;;;;;;10.82;3.65;;;;;;;;;;4963763;28;20030;-78
2023/09/30 05:08:57;;;;;;;12.32;3.80;;;;;;;;;;4944144;28;20038;-78
2023/09/30 05:11:23;;;;;;;10.27;4.18;;;;;;;;;;4964089;28;20030;-86
2023/09/30 05:13:49;;;;;;;13.38;3.80;;;;;;;;;;4958321;28;20023;-78
2023/09/30 05:16:15;;;;;;;9.98;3.67;;;;;;;;;;4956764;28;20035;-79
2023/09/30 05:18:41;;;;;;;9.98;3.65;;;;;;;;;;4948561;28;20038;-81
2023/09/30 05:21:06;;;;;;;11.05;3.80;;;;;;;;;;4946799;28;20062;-81
2023/09/30 05:23:32;;;;;;;9.23;3.80;;;;;;;;;;4962329;28;20502;-80
2023/09/30 05:25:58;;;;;;;11.93;3.90;;;;;;;;;;4955550;28;20027;-78
2023/09/30 05:28:23;;;;;;;10.02;4.00;;;;;;;;;;4966097;28;20338;-80
2023/09/30 05:30:50;;;;;;;11.75;4.28;;;;;;;;;;4958566;28;20030;-79
2023/09/30 05:33:16;;;;;;;9.60;3.72;;;;;;;;;;4961212;28;20110;-80
2023/09/30 05:35:42;;;;;;;12.57;3.78;;;;;;;;;;4962921;28;20046;-78
2023/09/30 05:38:08;;;;;;;12.13;3.63;;;;;;;;;;4958099;28;20031;-80
2023/09/30 05:40:33;;;;;;;10.68;3.78;;;;;;;;;;4959819;28;20038;-80
2023/09/30 05:42:59;;;;;;;9.50;4.40;;;;;;;;;;4959087;28;20043;-79
2023/09/30 05:45:26;;;;;;;12.15;3.80;;;;;;;;;;4964114;28;20039;-79
2023/09/30 05:47:53;;;;;;;10.07;3.90;;;;;;;;;;4959921;28;20026;-79
2023/09/30 05:50:23;;;;;;;11.15;3.92;;;;;;;;;;4957177;28;20221;-79
2023/09/30 05:52:50;;;;;;;11.07;3.72;;;;;;;;;;4957574;28;20049;-79
2023/09/30 05:55:19;;;;;;;10.93;3.75;;;;;;;;;;4952585;28;20038;-79
2023/09/30 05:57:45;;;;;;;13.55;3.60;;;;;;;;;;4968108;28;20065;-79
2023/09/30 06:00:28;;;;;;;11.38;3.80;;;;;;;;;;4957166;28;20181;-79
2023/09/30 06:02:54;;;;;;;9.82;3.83;;;;;;;;;;4957773;28;20141;-79
2023/09/30 06:05:19;;;;;;;13.15;4.13;;;;;;;;;;4962949;28;20515;-80
2023/09/30 06:07:46;;;;;;;12.68;4.70;;;;;;;;;;4958895;28;20062;-79
2023/09/30 06:10:12;;;;;;;15.57;3.97;;;;;;;;;;4951555;28;20567;-80
2023/09/30 06:12:38;;;;;;;10.73;3.75;;;;;;;;;;4961466;28;20050;-78
2023/09/30 06:15:04;;;;;;;12.30;4.00;;;;;;;;;;4957128;28;20042;-79
2023/09/30 06:17:30;;;;;;;11.07;3.97;;;;;;;;;;4963608;28;20033;-80
2023/09/30 06:19:56;;;;;;;11.27;3.60;;;;;;;;;;4960134;28;20050;-78
2023/09/30 06:22:21;;;;;;;11.32;3.88;;;;;;;;;;4957709;28;20033;-79
2023/09/30 06:24:48;;;;;;;11.85;3.78;;;;;;;;;;4962126;28;20554;-79
2023/09/30 06:27:13;;;;;;;16.55;3.60;;;;;;;;;;4961910;28;20110;-79
2023/09/30 06:29:40;;;;;;;10.98;3.75;;;;;;;;;;4958515;28;20081;-79
2023/09/30 06:32:06;;;;;;;9.98;3.50;;;;;;;;;;4959375;28;20027;-82
2023/09/30 06:34:32;;;;;;;11.35;3.58;;;;;;;;;;4959984;28;21226;-78
2023/09/30 06:36:59;;;;;;;12.02;3.65;;;;;;;;;;4947568;28;20522;-78
2023/09/30 06:39:25;;;;;;;11.98;3.75;;;;;;;;;;4968692;28;20030;-78
2023/09/30 06:41:50;;;;;;;16.27;5.50;;;;;;;;;;4959967;28;20046;-79
2023/09/30 06:44:16;;;;;;;17.35;4.68;;;;;;;;;;4964845;28;20486;-80
2023/09/30 06:46:42;;;;;;;15.70;4.00;;;;;;;;;;4954212;28;20023;-79
2023/09/30 06:49:07;;;;;;;7.22;3.53;;;;;;;;;;4955379;28;20029;-81
2023/09/30 06:51:32;;;;;;;12.85;3.58;;;;;;;;;;4957993;28;20188;-78
2023/09/30 06:53:58;;;;;;;12.00;3.90;;;;;;;;;;4957977;28;20544;-78
2023/09/30 06:56:23;;;;;;;10.07;3.60;;;;;;;;;;4963060;28;20056;-80
2023/09/30 06:58:49;;;;;;;15.98;3.80;;;;;;;;;;4959668;28;20022;-78
2023/09/30 07:01:17;;;;;;;13.05;4.22;;;;;;;;;;4953662;28;20176;-79
2023/09/30 07:03:43;;;;;;;14.25;3.83;;;;;;;;;;4961897;28;20022;-79
2023/09/30 07:06:09;;;;;;;12.05;3.63;;;;;;;;;;4957496;28;20076;-79
2023/09/30 07:08:34;;;;;;;13.45;3.90;;;;;;;;;;4960757;28;20027;-80
2023/09/30 07:11:00;;;;;;;15.07;3.95;;;;;;;;;;4958455;28;20034;-78
2023/09/30 07:13:25;;;;;;;13.88;3.65;;;;;;;;;;4959767;28;20035;-78
2023/09/30 07:15:51;;;;;;;13.23;3.97;;;;;;;;;;4956263;28;20222;-79
2023/09/30 07:18:20;;;;;;;13.70;3.63;;;;;;;;;;4958079;28;20097;-90
2023/09/30 07:20:45;;;;;;;14.93;3.97;;;;;;;;;;4959047;28;20046;-90
2023/09/30 07:23:13;;;;;;;16.25;3.97;;;;;;;;;;4954477;28;20022;-79
2023/09/30 07:25:38;;;;;;;16.25;3.38;;;;;;;;;;4963326;28;20050;-90
2023/09/30 07:28:03;;;;;;;12.68;3.72;;;;;;;;;;4955271;28;20035;-91
2023/09/30 07:30:29;;;;;;;16.85;4.28;;;;;;;;;;4957339;28;20035;-78
2023/09/30 07:32:54;;;;;;;14.73;4.57;;;;;;;;;;4960845;28;20474;-78
2023/09/30 07:35:20;;;;;;;15.32;4.20;;;;;;;;;;4962601;28;20832;-90
2023/09/30 07:37:45;;;;;;;14.38;4.30;;;;;;;;;;4960126;28;20272;-78
2023/09/30 07:40:12;;;;;;;14.82;3.95;;;;;;;;;;4949395;28;20027;-87
2023/09/30 07:42:37;;;;;;;12.18;4.22;;;;;;;;;;4956791;28;20076;-89
2023/09/30 07:45:04;;;;;;;12.18;3.70;;;;;;;;;;4956360;28;20042;-88
2023/09/30 07:47:30;;;;;;;16.48;4.32;;;;;;;;;;4958386;28;20086;-78
2023/09/30 07:49:56;;;;;;;14.20;4.32;;;;;;;;;;4956576;28;20029;-78
2023/09/30 07:52:21;;;;;;;15.57;4.40;;;;;;;;;;4952428;28;20125;-91
2023/09/30 07:54:47;;;;;;;15.93;4.60;;;;;;;;;;4957777;28;20038;-80
2023/09/30 07:57:12;;;;;;;14.60;3.83;;;;;;;;;;4952369;28;20073;-90
2023/09/30 07:59:38;;;;;;;20.90;4.68;;;;;;;;;;4953436;28;20035;-80
2023/09/30 08:02:04;;;;;;;16.67;4.43;;;;;;;;;;4947791;28;20266;-86
2023/09/30 08:04:30;;;;;;;13.30;4.18;;;;;;;;;;4960865;28;20026;-79
2023/09/30 08:06:56;;;;;;;19.13;4.20;;;;;;;;;;4959188;28;20023;-79
2023/09/30 08:09:23;;;;;;;17.40;4.72;;;;;;;;;;4960328;28;20037;-80
2023/09/30 08:11:49;;;;;;;16.52;4.50;;;;;;;;;;4961036;28;20027;-78
2023/09/30 08:14:15;;;;;;;13.40;4.20;;;;;;;;;;4958646;28;20026;-78
2023/09/30 08:16:40;;;;;;;15.82;4.60;;;;;;;;;;4964017;28;20098;-79
2023/09/30 08:19:06;;;;;;;15.85;4.63;;;;;;;;;;4960624;28;20069;-79
2023/09/30 08:21:31;;;;;;;16.65;4.47;;;;;;;;;;4958947;28;20449;-80
2023/09/30 08:23:57;;;;;;;16.30;4.75;;;;;;;;;;4957037;28;20106;-80
2023/09/30 08:26:22;;;;;;;17.77;5.30;;;;;;;;;;4967810;28;20275;-79
2023/09/30 08:28:48;;;;;;;16.73;4.88;;;;;;;;;;4956142;28;20026;-79
2023/09/30 08:31:14;;;;;;;14.18;4.15;;;;;;;;;;4959398;28;20500;-79
2023/09/30 08:33:45;;;;;;;16.15;4.85;;;;;;;;;;4960242;28;20033;-79
2023/09/30 08:36:10;;;;;;;15.55;4.82;;;;;;;;;;4962214;28;20018;-80
2023/09/30 08:38:37;;;;;;;15.50;4.43;;;;;;;;;;4960300;28;20146;-80
2023/09/30 08:41:03;;;;;;;20.83;5.00;;;;;;;;;;4956455;28;20030;-81
2023/09/30 08:43:31;;;;;;;17.80;5.03;;;;;;;;;;4962540;28;20068;-79
2023/09/30 08:45:59;;;;;;;15.93;5.28;;;;;;;;;;4956697;28;20038;-77
2023/09/30 08:48:27;;;;;;;19.98;5.35;;;;;;;;;;4961137;28;20066;-78
2023/09/30 08:50:54;;;;;;;17.83;5.18;;;;;;;;;;4964483;28;20027;-78
2023/09/30 08:53:20;;;;;;;16.65;4.53;;;;;;;;;;4960459;28;20030;-79
2023/09/30 08:55:46;;;;;;;16.05;5.05;;;;;;;;;;4960092;28;20093;-77
2023/09/30 08:58:12;;;;;;;19.58;4.63;;;;;;;;;;4955945;28;20541;-78
2023/09/30 09:00:39;;;;;;;13.57;4.30;;;;;;;;;;4956004;28;20050;-78
2023/09/30 09:03:07;;;;;;;15.27;4.78;;;;;;;;;;4960696;28;20098;-78
2023/09/30 09:05:32;;;;;;;14.57;4.38;;;;;;;;;;4967535;28;20180;-84
2023/09/30 09:07:57;;;;;;;14.35;4.25;;;;;;;;;;4962040;28;20410;-79
2023/09/30 09:10:23;;;;;;;15.30;4.10;;;;;;;;;;4963402;28;20105;-81
2023/09/30 09:12:57;;;;;;;15.38;4.70;;;;;;;;;;4962326;28;20034;-77
2023/09/30 09:15:28;;;;;;;19.85;4.32;;;;;;;;;;4951647;28;21131;-82
2023/09/30 09:17:54;;;;;;;16.23;5.25;;;;;;;;;;4956295;28;20031;-76
2023/09/30 09:20:22;;;;;;;17.27;5.28;;;;;;;;;;4962791;28;20057;-76
2023/09/30 09:22:54;;;;;;;20.08;5.07;;;;;;;;;;4968972;28;20030;-77
2023/09/30 09:25:23;;;;;;;15.07;4.95;;;;;;;;;;4968350;28;20521;-77
2023/09/30 09:27:50;;;;;;;16.48;5.00;;;;;;;;;;4966801;28;20041;-77
2023/09/30 09:30:19;;;;;;;16.77;5.05;;;;;;;;;;4961987;28;20051;-77
2023/09/30 09:33:02;;;;;;;16.42;4.45;;;;;;;;;;4960657;28;20364;-77
2023/09/30 09:35:30;;;;;;;16.80;4.60;;;;;;;;;;4964061;28;20037;-76
2023/09/30 09:38:03;;;;;;;14.30;4.53;;;;;;;;;;4953430;28;20070;-78
2023/09/30 09:40:38;;;;;;;17.45;4.65;;;;;;;;;;4961072;28;20031;-78
2023/09/30 09:43:05;;;;;;;12.85;4.60;;;;;;;;;;4956189;28;20042;-76
2023/09/30 09:45:33;;;;;;;12.60;3.85;;;;;;;;;;4951970;28;20047;-77
2023/09/30 09:47:58;;;;;;;15.35;3.92;;;;;;;;;;4959462;28;20035;-79
2023/09/30 09:50:24;;;;;;;13.20;4.28;;;;;;;;;;4962699;28;20095;-78
2023/09/30 09:52:54;;;;;;;14.70;4.60;;;;;;;;;;4973492;28;20369;-78
2023/09/30 09:55:22;;;;;;;13.30;4.00;;;;;;;;;;4961162;28;20050;-87
2023/09/30 09:57:48;;;;;;;17.30;3.70;;;;;;;;;;4963598;28;20042;-78
2023/09/30 10:00:19;;;;;;;16.13;4.22;;;;;;;;;;4944798;28;20033;-80
2023/09/30 10:02:46;;;;;;;13.18;4.00;;;;;;;;;;4953899;28;20080;-78
2023/09/30 10:05:12;;;;;;;11.45;3.55;;;;;;;;;;4950957;28;20102;-82
2023/09/30 10:07:43;;;;;;;14.77;3.85;;;;;;;;;;4949400;28;20027;-87
2023/09/30 10:10:13;;;;;;;14.45;3.80;;;;;;;;;;4950679;28;20092;-81
2023/09/30 10:12:39;;;;;;;12.40;3.70;;;;;;;;;;4947448;28;20412;-82
2023/09/30 10:15:26;;;;;;;13.27;3.85;;;;;;;;;;4952295;28;20503;-91
2023/09/30 10:18:11;;;;;;;15.52;3.90;;;;;;;;;;4949652;28;20023;-78
2023/09/30 10:20:41;;;;;;;13.20;4.03;;;;;;;;;;4941855;28;20038;-75
2023/09/30 10:23:24;;;;;;;14.18;3.80;;;;;;;;;;4937444;28;20103;-87
2023/09/30 10:25:57;;;;;;;11.27;3.78;;;;;;;;;;4946973;28;20031;-78
2023/09/30 10:28:46;;;;;;;11.90;3.40;;;;;;;;;;4953606;28;20054;-93
2023/09/30 10:31:19;;;;;;;10.35;3.60;;;;;;;;;;4948092;28;20661;-81
2023/09/30 10:34:00;;;;;;;12.82;3.53;;;;;;;;;;4950115;28;20105;-85
2023/09/30 10:36:34;;;;;;;11.13;3.40;;;;;;;;;;4942349;28;20042;-76
2023/09/30 10:39:00;;;;;;;12.43;3.63;;;;;;;;;;4963334;28;20626;-76
2023/09/30 10:41:41;;;;;;;13.07;3.60;;;;;;;;;;4954916;28;20047;-77
2023/09/30 10:44:22;;;;;;;14.68;3.78;;;;;;;;;;4956861;28;20112;-77
2023/09/30 10:46:48;;;;;;;13.77;3.92;;;;;;;;;;4952457;28;20049;-76
2023/09/30 10:49:22;;;;;;;12.13;4.57;;;;;;;;;;4957402;28;20242;-75
2023/09/30 10:51:52;;;;;;;15.38;4.00;;;;;;;;;;4963086;28;20027;-86
2023/09/30 10:54:28;;;;;;;13.45;3.83;;;;;;;;;;4955938;28;20035;-76
2023/09/30 10:56:54;;;;;;;16.10;3.88;;;;;;;;;;4966983;28;20090;-76
2023/09/30 10:59:22;;;;;;;12.13;4.05;;;;;;;;;;4959064;28;20026;-86
2023/09/30 11:01:48;;;;;;;11.77;4.07;;;;;;;;;;4962489;28;20334;-76
2023/09/30 11:04:15;;;;;;;13.65;3.92;;;;;;;;;;4961279;28;20030;-82
2023/09/30 11:06:41;;;;;;;12.05;3.53;;;;;;;;;;4958814;28;20027;-86
2023/09/30 11:09:13;;;;;;;14.55;4.43;;;;;;;;;;4960456;28;20543;-87
2023/09/30 11:11:50;;;;;;;12.85;4.05;;;;;;;;;;4964046;28;20038;-85
2023/09/30 11:14:28;;;;;;;13.15;3.97;;;;;;;;;;4954887;28;20030;-77
2023/09/30 11:16:54;;;;;;;12.35;4.13;;;;;;;;;;4960878;28;20541;-76
2023/09/30 11:19:21;;;;;;;11.80;4.05;;;;;;;;;;4955087;28;20026;-85
2023/09/30 11:21:52;;;;;;;12.60;4.07;;;;;;;;;;4958735;28;20025;-82
2023/09/30 11:24:18;;;;;;;9.90;4.07;;;;;;;;;;4950333;28;20027;-81
2023/09/30 11:26:45;;;;;;;11.60;3.88;;;;;;;;;;4963762;28;20439;-85
2023/09/30 11:29:13;;;;;;;14.80;4.20;;;;;;;;;;4958187;28;20031;-82
2023/09/30 11:31:42;;;;;;;13.05;4.13;;;;;;;;;;4960313;28;20023;-76
2023/09/30 11:34:08;;;;;;;12.45;3.95;;;;;;;;;;4951490;28;20040;-74
2023/09/30 11:36:40;;;;;;;13.13;4.20;;;;;;;;;;4963976;28;20023;-74
2023/09/30 11:39:08;;;;;;;12.57;4.60;;;;;;;;;;4955407;28;20105;-85
2023/09/30 11:41:39;;;;;;;10.18;4.30;;;;;;;;;;4960384;28;20064;-81
2023/09/30 11:44:07;;;;;;;11.80;4.10;;;;;;;;;;4954883;28;20050;-80
2023/09/30 11:46:36;;;;;;;10.68;4.13;;;;;;;;;;4961255;28;20118;-75
2023/09/30 11:49:03;;;;;;;9.93;3.67;;;;;;;;;;4959755;28;20023;-75
2023/09/30 11:51:28;;;;;;;10.10;4.22;;;;;;;;;;4959541;28;20353;-74
2023/09/30 11:53:54;;;;;;;12.93;4.20;;;;;;;;;;4964484;28;20026;-74
2023/09/30 11:56:22;;;;;;;11.43;4.57;;;;;;;;;;4954794;28;20023;-74
2023/09/30 11:58:48;;;;;;;9.95;3.80;;;;;;;;;;4958810;28;20440;-76
2023/09/30 12:01:14;;;;;;;12.65;5.40;;;;;;;;;;4957197;28;20039;-76
2023/09/30 12:03:40;;;;;;;12.18;4.03;;;;;;;;;;4957500;28;20204;-76
2023/09/30 12:06:13;;;;;;;11.23;3.90;;;;;;;;;;4954583;28;20031;-76
2023/09/30 12:08:39;;;;;;;12.48;4.03;;;;;;;;;;4961199;28;20027;-76
2023/09/30 12:11:04;;;;;;;11.40;3.85;;;;;;;;;;4956003;28;20073;-76
2023/09/30 12:13:29;;;;;;;12.80;4.43;;;;;;;;;;4961315;28;20030;-75
2023/09/30 12:15:55;;;;;;;11.35;3.63;;;;;;;;;;4962030;28;20373;-75
2023/09/30 12:18:24;;;;;;;10.85;3.75;;;;;;;;;;4961011;28;20647;-76
2023/09/30 12:20:50;;;;;;;10.15;4.20;;;;;;;;;;4963205;28;20331;-76
2023/09/30 12:23:17;;;;;;;9.82;3.65;;;;;;;;;;4956287;28;20037;-76
2023/09/30 12:25:43;;;;;;;11.43;4.20;;;;;;;;;;4961373;28;20031;-75
2023/09/30 12:28:09;;;;;;;11.07;3.80;;;;;;;;;;4958258;28;20145;-76
2023/09/30 12:30:34;;;;;;;10.75;3.85;;;;;;;;;;4960439;28;20031;-76
2023/09/30 12:33:00;;;;;;;9.57;3.65;;;;;;;;;;4955273;28;20082;-76
2023/09/30 12:35:26;;;;;;;12.75;4.13;;;;;;;;;;4961096;28;20023;-76
2023/09/30 12:37:51;;;;;;;11.48;3.75;;;;;;;;;;4954939;28;20090;-76
2023/09/30 12:40:17;;;;;;;12.68;3.70;;;;;;;;;;4959257;28;20030;-76
2023/09/30 12:42:44;;;;;;;9.95;3.75;;;;;;;;;;4962889;28;20034;-75
2023/09/30 12:45:10;;;;;;;12.00;3.97;;;;;;;;;;4954666;28;20073;-76
2023/09/30 12:47:35;;;;;;;17.38;4.22;;;;;;;;;;4959965;28;20023;-78
2023/09/30 12:50:01;;;;;;;11.98;3.65;;;;;;;;;;4960455;28;20023;-77
2023/09/30 12:52:26;;;;;;;9.73;3.70;;;;;;;;;;4960459;28;20101;-76
2023/09/30 12:54:52;;;;;;;12.55;3.55;;;;;;;;;;4958921;28;20038;-76
2023/09/30 12:57:18;;;;;;;9.77;3.67;;;;;;;;;;4959562;28;20041;-75
2023/09/30 12:59:46;;;;;;;8.82;3.60;;;;;;;;;;4965799;28;20030;-75
2023/09/30 13:02:12;;;;;;;10.38;3.70;;;;;;;;;;4959497;28;20039;-76
2023/09/30 13:04:42;;;;;;;9.88;3.63;;;;;;;;;;4961001;28;20072;-76
2023/09/30 13:07:11;;;;;;;10.70;4.22;;;;;;;;;;4953853;28;20588;-76
2023/09/30 13:09:38;;;;;;;10.90;3.92;;;;;;;;;;4958476;28;20034;-76
2023/09/30 13:12:04;;;;;;;11.45;3.83;;;;;;;;;;4959954;28;20038;-77
2023/09/30 13:14:29;;;;;;;9.68;3.70;;;;;;;;;;4953420;28;20472;-77
2023/09/30 13:16:55;;;;;;;11.13;4.30;;;;;;;;;;4952403;28;20123;-75
2023/09/30 13:19:23;;;;;;;11.43;4.40;;;;;;;;;;4963348;28;20042;-84
2023/09/30 13:21:50;;;;;;;10.68;4.18;;;;;;;;;;4948400;28;20023;-74
2023/09/30 13:24:15;;;;;;;11.82;3.95;;;;;;;;;;4947819;28;20147;-79
2023/09/30 13:26:40;;;;;;;12.15;3.53;;;;;;;;;;4950943;28;20510;-78
2023/09/30 13:29:09;;;;;;;11.18;3.50;;;;;;;;;;4944569;28;20031;-75
2023/09/30 13:31:36;;;;;;;12.18;3.88;;;;;;;;;;4947330;28;20325;-83
2023/09/30 13:34:03;;;;;;;11.23;4.10;;;;;;;;;;4954231;28;20046;-87
2023/09/30 13:36:28;;;;;;;9.88;3.88;;;;;;;;;;4972860;28;20106;-77
2023/09/30 13:38:53;;;;;;;9.82;4.10;;;;;;;;;;4961310;28;20043;-77
2023/09/30 13:41:19;;;;;;;10.48;4.07;;;;;;;;;;4960388;28;20038;-87
2023/09/30 13:43:45;;;;;;;11.15;4.40;;;;;;;;;;4965979;28;20558;-85
2023/09/30 13:46:12;;;;;;;13.40;4.63;;;;;;;;;;4967578;28;20093;-89
2023/09/30 13:48:37;;;;;;;11.40;4.47;;;;;;;;;;4965993;28;20082;-90
2023/09/30 13:51:07;;;;;;;12.82;4.32;;;;;;;;;;4952120;28;20023;-88
2023/09/30 13:53:32;;;;;;;13.45;4.40;;;;;;;;;;4968748;28;20106;-93
2023/09/30 13:55:58;;;;;;;12.38;4.40;;;;;;;;;;4965617;28;20171;-78
2023/09/30 13:58:24;;;;;;;12.65;4.13;;;;;;;;;;4958811;28;20027;-87
2023/09/30 14:00:52;;;;;;;11.93;4.40;;;;;;;;;;4961284;28;20102;-78
2023/09/30 14:03:20;;;;;;;13.27;4.50;;;;;;;;;;4965183;28;20026;-79
2023/09/30 14:05:46;;;;;;;10.30;3.85;;;;;;;;;;4960727;28;20097;-78
2023/09/30 14:08:12;;;;;;;10.60;4.07;;;;;;;;;;4956151;28;20108;-90
2023/09/30 14:10:37;;;;;;;8.25;3.53;;;;;;;;;;4960055;28;20086;-95
2023/09/30 14:13:03;;;;;;;9.50;4.38;;;;;;;;;;4956931;28;20031;-93
2023/09/30 14:15:30;;;;;;;10.57;4.00;;;;;;;;;;4962228;28;20042;-78
2023/09/30 14:17:59;;;;;;;11.75;4.10;;;;;;;;;;4958925;28;20019;-77
2023/09/30 14:20:25;;;;;;;9.02;3.67;;;;;;;;;;4958487;28;20027;-78
2023/09/30 14:22:51;;;;;;;10.70;4.32;;;;;;;;;;4970670;28;20042;-78
2023/09/30 14:25:17;;;;;;;10.43;3.90;;;;;;;;;;4962309;28;20030;-79
2023/09/30 14:27:43;;;;;;;9.55;3.90;;;;;;;;;;4967017;28;20050;-79
2023/09/30 14:30:08;;;;;;;11.07;4.40;;;;;;;;;;4955871;28;20787;-95
2023/09/30 14:32:34;;;;;;;11.30;4.50;;;;;;;;;;4957790;28;20031;-82